x

Mumbles Head (03609) Weather Station

11:00am - Mon 23rd Oct 2017 All times are BST. 1 hours from GMT.

  • Wind
    19mph
  • Air Temp 57°f
  • Sea Pressure 1015mb
  • Mumbles Head
  • Mumbles Head

More Historic Weather Station data

Upgrade to MSW Pro to gain access to the past 30 days of data for over 8000 Wavebouys and Weather Stations around the globe.

Join

Comparision Forecast

View Surf forecast
   
Mon 10/23 11:00am 19
mph
1015mb 57f
10:00am 21
mph
1015mb 57f
9:00am 24 29 mph 1015mb 57f
8:00am 26 32 mph 1015mb 55f
7:00am 28 33 mph 1015mb 55f
6:00am 19 31 mph 1016mb 54f
5:00am 26 33 mph 1016mb 55f
4:00am 26 33 mph 1016mb 55f
3:00am 22 30 mph 1017mb 55f
2:00am 23 29 mph 1017mb 55f
1:00am 24 30 mph 1018mb 55f
12:00am 24 31 mph 1018mb 55f
Sun 10/22 11:00pm 22 29 mph 1019mb 55f
10:00pm 21 30 mph 1019mb 55f
9:00pm 15
mph
1019mb 54f
8:00pm 17
mph
1019mb 54f
7:00pm 10
mph
1019mb 54f
6:00pm 11
mph
1018mb 54f
5:00pm 16
mph
1018mb 54f
3:00pm 15 29 mph 1017mb 55f
2:00pm 19 37 mph 1017mb 54f
1:00pm 22 38 mph 1017mb 54f
12:00pm 17 32 mph 1017mb 52f
11:00am 14 34 mph 1016mb 50f
10:00am 19 39 mph 1015mb 52f
9:00am 19 37 mph 1014mb 50f
8:00am 17 31 mph 1014mb 48f
7:00am 16 34 mph 1013mb 50f
6:00am 17 33 mph 1013mb 50f
5:00am 19 34 mph 1012mb 50f
4:00am 23 36 mph 1011mb 50f
3:00am 17 33 mph 1011mb 50f
2:00am 19 36 mph 1010mb 50f
1:00am 16 36 mph 1009mb 50f
12:00am 22 39 mph 1008mb 50f
Sat 10/21 11:00pm 19 39 mph 1006mb 52f
10:00pm 24 41 mph 1005mb 52f
9:00pm 24 46 mph 1004mb 54f
8:00pm 26 43 mph 1003mb 54f
7:00pm 24 40 mph 1001mb 55f
6:00pm 31 48 mph 999mb 55f
5:00pm 36 57 mph 998mb 55f
4:00pm 46 67 mph 996mb 54f
3:00pm 54 76 mph 995mb 54f
2:00pm 54 71 mph 995mb 54f
1:00pm 55 72 mph 994mb 55f
12:00pm 57 75 mph 995mb 54f
11:00am 55 69 mph 994mb 54f
10:00am 49 69 mph 994mb 55f
9:00am 49 66 mph 994mb 52f
8:00am 53 67 mph 994mb 55f
7:00am 51 71 mph 994mb 54f
6:00am 49 66 mph 995mb 55f
5:00am 44 61 mph 996mb 54f
4:00am 41 55 mph 996mb 57f
3:00am 44 55 mph 997mb 57f
2:00am 40 46 mph 997mb 57f
1:00am 29 39 mph 998mb 57f
12:00am 29 36 mph 999mb 57f
Fri 10/20 11:00pm 30 47 mph 999mb 57f
10:00pm 32 40 mph 999mb 57f
9:00pm 30 38 mph 1000mb 57f
8:00pm 30 37 mph 1001mb 57f
7:00pm 24 31 mph 1003mb 57f
6:00pm 21
mph
1005mb 57f
5:00pm 19 31 mph 1006mb 57f
4:00pm 23 31 mph 1006mb 55f
3:00pm 19
mph
1007mb 55f
2:00pm 21
mph
1007mb 55f
1:00pm 22
mph
1007mb 55f
12:00pm 15
mph
1008mb 54f
11:00am 11
mph
1008mb 54f
10:00am 14
mph
1007mb 52f
9:00am 13
mph
1006mb 50f
8:00am 15
mph
1004mb 50f
7:00am 16 29 mph 1003mb 50f
6:00am 19 33 mph 1001mb 50f
5:00am 22 34 mph 1000mb 52f
4:00am 19 31 mph 998mb 54f
3:00am 16 31 mph 996mb 54f
2:00am 22 34 mph 993mb 55f
1:00am 22 31 mph 991mb 57f
12:00am 26 36 mph 990mb 55f
Thu 10/19 11:00pm 30 38 mph 990mb 55f
10:00pm 32 39 mph 991mb 55f
9:00pm 30 37 mph 992mb 55f
8:00pm 22 41 mph 992mb 57f
7:00pm 33 46 mph 993mb 57f
6:00pm 33 40 mph 993mb 57f
5:00pm 28 33 mph 995mb 57f
4:00pm 18
mph
996mb 57f
3:00pm 18
mph
998mb 57f
2:00pm 23 29 mph 998mb 57f
1:00pm 21
mph
1000mb 55f